Metar GG30 METAR message from awiacja.imgw.pl Metar G30 EPSY METAR EPSY 181430Z 32009KT 290V350 CAVOK 17/05 Q1026=